createdAt,value
2023-05-21T00:00:50.107Z,91.29
2023-05-21T00:01:50.150Z,92.00
2023-05-21T00:02:50.160Z,91.60
2023-05-21T00:03:50.322Z,91.49
2023-05-21T00:04:50.061Z,91.60
2023-05-21T00:05:50.237Z,91.39
2023-05-21T00:06:50.064Z,92.14
2023-05-21T00:07:50.082Z,92.04
2023-05-21T00:08:50.016Z,92.45
2023-05-21T00:09:50.028Z,92.55
2023-05-21T00:10:50.003Z,92.45
2023-05-21T00:11:50.001Z,92.45
2023-05-21T00:12:50.029Z,92.04
2023-05-21T00:13:49.979Z,92.96
2023-05-21T00:14:49.956Z,93.06
2023-05-21T00:15:49.953Z,92.96
2023-05-21T00:16:50.093Z,92.65
2023-05-21T00:17:49.954Z,92.55
2023-05-21T00:18:49.971Z,92.55
2023-05-21T00:19:49.918Z,92.65
2023-05-21T00:20:49.888Z,93.16
2023-05-21T00:21:49.896Z,92.86
2023-05-21T00:22:49.895Z,92.25
2023-05-21T00:23:49.895Z,92.76
2023-05-21T00:24:49.853Z,93.06
2023-05-21T00:25:49.851Z,93.16
2023-05-21T00:26:49.836Z,93.02
2023-05-21T00:27:49.832Z,92.41
2023-05-21T00:28:49.826Z,92.30
2023-05-21T00:29:49.818Z,92.21
2023-05-21T00:30:49.790Z,92.45
2023-05-21T00:31:49.798Z,92.76
2023-05-21T00:32:49.827Z,93.06
2023-05-21T00:33:49.778Z,93.16
2023-05-21T00:34:49.757Z,92.86
2023-05-21T00:35:49.735Z,92.45
2023-05-21T00:36:49.747Z,92.86
2023-05-21T00:37:49.746Z,93.37
2023-05-21T00:38:49.717Z,92.65
2023-05-21T00:39:49.704Z,93.47
2023-05-21T00:40:49.690Z,93.37
2023-05-21T00:41:49.680Z,93.67
2023-05-21T00:42:49.698Z,93.98
2023-05-21T00:43:49.659Z,93.67
2023-05-21T00:44:49.641Z,93.16
2023-05-21T00:45:49.671Z,93.47
2023-05-21T00:46:49.618Z,93.06
2023-05-21T00:47:49.673Z,93.16
2023-05-21T00:48:49.606Z,92.65
2023-05-21T00:49:49.611Z,93.87
2023-05-21T00:50:49.594Z,94.08
2023-05-21T00:51:49.608Z,93.47
2023-05-21T00:52:52.146Z,93.57
2023-05-21T00:53:49.561Z,92.76
2023-05-21T00:54:49.540Z,93.06
2023-05-21T00:55:49.568Z,93.87
2023-05-21T00:56:49.517Z,93.16
2023-05-21T00:57:52.824Z,93.47
2023-05-21T00:58:49.492Z,93.98
2023-05-21T00:59:49.505Z,93.37
2023-05-21T01:00:49.474Z,93.67
2023-05-21T01:01:50.726Z,93.47
2023-05-21T01:02:49.574Z,93.87
2023-05-21T01:03:49.484Z,93.77
2023-05-21T01:04:49.428Z,94.08
2023-05-21T01:05:49.433Z,94.38
2023-05-21T01:06:49.438Z,93.87
2023-05-21T01:07:53.576Z,93.57
2023-05-21T01:08:49.401Z,93.67
2023-05-21T01:09:49.421Z,94.08
2023-05-21T01:10:49.377Z,94.59
2023-05-21T01:11:49.387Z,94.48
2023-05-21T01:12:49.355Z,94.02
2023-05-21T01:13:49.377Z,93.82
2023-05-21T01:14:49.359Z,94.02
2023-05-21T01:15:49.334Z,94.23
2023-05-21T01:16:49.377Z,94.23
2023-05-21T01:17:50.876Z,95.08
2023-05-21T01:18:49.412Z,95.29
2023-05-21T01:19:49.418Z,95.49
2023-05-21T01:20:49.304Z,95.90
2023-05-21T01:21:49.277Z,95.79
2023-05-21T01:22:49.265Z,96.10
2023-05-21T01:23:49.272Z,96.00
2023-05-21T01:24:49.232Z,95.79
2023-05-21T01:25:49.231Z,96.20
2023-05-21T01:26:49.242Z,96.20
2023-05-21T01:27:49.210Z,96.10
2023-05-21T01:28:49.205Z,96.41
2023-05-21T01:29:49.202Z,96.41
2023-05-21T01:30:49.176Z,96.51
2023-05-21T01:31:49.209Z,96.81
2023-05-21T01:32:49.292Z,96.71
2023-05-21T01:33:49.214Z,96.61
2023-05-21T01:34:50.542Z,96.81
2023-05-21T01:35:49.140Z,96.81
2023-05-21T01:36:49.116Z,96.00
2023-05-21T01:37:49.115Z,96.00
2023-05-21T01:38:49.098Z,96.61
2023-05-21T01:39:49.122Z,96.81
2023-05-21T01:40:49.074Z,97.22
2023-05-21T01:41:49.396Z,96.81
2023-05-21T01:42:49.052Z,96.92
2023-05-21T01:43:49.056Z,97.06
2023-05-21T01:44:49.055Z,97.16
2023-05-21T01:45:49.033Z,96.25
2023-05-21T01:46:49.117Z,96.55
2023-05-21T01:47:50.458Z,96.96
2023-05-21T01:48:49.012Z,97.27
2023-05-21T01:49:53.189Z,97.98
2023-05-21T01:50:48.972Z,98.39
2023-05-21T01:51:48.985Z,98.28
2023-05-21T01:52:48.952Z,97.57
2023-05-21T01:53:48.968Z,97.67
2023-05-21T01:54:48.935Z,97.88
2023-05-21T01:55:48.916Z,97.47
2023-05-21T01:56:48.922Z,97.16
2023-05-21T01:57:48.908Z,97.88
2023-05-21T01:58:48.913Z,98.39
2023-05-21T01:59:48.885Z,97.78
2023-05-21T02:00:48.878Z,97.88
2023-05-21T02:01:49.807Z,98.18
2023-05-21T02:02:49.120Z,98.39
2023-05-21T02:03:48.982Z,98.08
2023-05-21T02:04:48.845Z,97.78
2023-05-21T02:05:48.817Z,98.59
2023-05-21T02:06:48.836Z,98.69
2023-05-21T02:07:48.805Z,98.49
2023-05-21T02:08:48.824Z,98.69
2023-05-21T02:09:48.780Z,98.59
2023-05-21T02:10:48.774Z,98.64
2023-05-21T02:11:48.763Z,98.43
2023-05-21T02:12:48.772Z,99.04
2023-05-21T02:13:48.780Z,98.64
2023-05-21T02:14:48.744Z,98.64
2023-05-21T02:15:48.772Z,99.25
2023-05-21T02:16:50.221Z,98.64
2023-05-21T02:17:48.757Z,98.84
2023-05-21T02:18:48.706Z,99.04
2023-05-21T02:19:49.478Z,98.94
2023-05-21T02:20:48.698Z,98.94
2023-05-21T02:21:48.657Z,99.15
2023-05-21T02:22:48.616Z,99.04
2023-05-21T02:23:48.672Z,99.55
2023-05-21T02:24:48.650Z,99.20
2023-05-21T02:25:48.617Z,99.10
2023-05-21T02:26:48.569Z,98.43
2023-05-21T02:27:48.540Z,99.30
2023-05-21T02:28:48.536Z,99.35
2023-05-21T02:29:48.522Z,99.15
2023-05-21T02:30:48.533Z,98.54
2023-05-21T02:31:48.515Z,98.74
2023-05-21T02:32:48.526Z,99.25
2023-05-21T02:33:48.503Z,99.66
2023-05-21T02:34:48.482Z,99.86
2023-05-21T02:35:48.483Z,99.25
2023-05-21T02:36:48.494Z,99.55
2023-05-21T02:37:48.437Z,99.76
2023-05-21T02:38:48.433Z,99.76
2023-05-21T02:39:48.425Z,99.66
2023-05-21T02:40:49.044Z,99.96
2023-05-21T02:41:48.410Z,99.99
2023-05-21T02:42:48.401Z,99.99
2023-05-21T02:43:48.374Z,99.99
2023-05-21T02:44:48.363Z,99.99
2023-05-21T02:45:48.403Z,99.96
2023-05-21T02:46:48.348Z,99.86
2023-05-21T02:47:48.382Z,99.99
2023-05-21T02:48:48.333Z,99.86
2023-05-21T02:49:48.306Z,99.99
2023-05-21T02:50:48.316Z,99.99
2023-05-21T02:51:48.291Z,99.99
2023-05-21T02:52:48.732Z,99.99
2023-05-21T02:53:48.274Z,99.99
2023-05-21T02:54:48.268Z,99.99
2023-05-21T02:55:48.253Z,99.99
2023-05-21T02:56:48.293Z,99.99
2023-05-21T02:57:48.216Z,99.99
2023-05-21T02:58:48.231Z,99.99
2023-05-21T02:59:48.201Z,99.99
2023-05-21T03:00:48.197Z,99.99
2023-05-21T03:01:48.263Z,99.99
2023-05-21T03:02:48.355Z,99.99
2023-05-21T03:03:48.266Z,99.99
2023-05-21T03:04:48.165Z,99.99
2023-05-21T03:05:48.143Z,99.99
2023-05-21T03:06:48.145Z,99.99
2023-05-21T03:07:48.161Z,99.99
2023-05-21T03:08:48.120Z,99.99
2023-05-21T03:09:48.098Z,99.99
2023-05-21T03:10:48.093Z,99.99
2023-05-21T03:11:48.084Z,99.99
2023-05-21T03:12:48.097Z,99.99
2023-05-21T03:13:48.110Z,99.99
2023-05-21T03:14:48.071Z,99.99
2023-05-21T03:15:49.410Z,99.99
2023-05-21T03:16:48.082Z,99.99
2023-05-21T03:17:48.064Z,99.99
2023-05-21T03:18:48.024Z,99.99
2023-05-21T03:19:48.025Z,99.99
2023-05-21T03:20:47.994Z,99.99
2023-05-21T03:21:47.972Z,99.99
2023-05-21T03:22:47.983Z,99.99
2023-05-21T03:23:47.951Z,99.99
2023-05-21T03:24:47.972Z,99.99
2023-05-21T03:25:47.933Z,99.99
2023-05-21T03:26:49.899Z,99.99
2023-05-21T03:27:47.913Z,99.99
2023-05-21T03:28:47.924Z,99.99
2023-05-21T03:29:47.919Z,99.99
2023-05-21T03:30:47.896Z,99.99
2023-05-21T03:31:47.899Z,99.99
2023-05-21T03:32:47.945Z,99.91
2023-05-21T03:33:47.867Z,99.99
2023-05-21T03:34:47.882Z,99.99
2023-05-21T03:35:47.825Z,99.99
2023-05-21T03:36:47.825Z,99.99
2023-05-21T03:37:47.821Z,99.99
2023-05-21T03:38:47.831Z,99.99
2023-05-21T03:39:47.791Z,99.99
2023-05-21T03:40:47.788Z,99.99
2023-05-21T03:41:47.774Z,99.99
2023-05-21T03:42:47.768Z,99.99
2023-05-21T03:43:47.761Z,99.99
2023-05-21T03:44:47.769Z,99.99
2023-05-21T03:45:47.755Z,99.99
2023-05-21T03:46:47.726Z,99.99
2023-05-21T03:47:47.725Z,99.99
2023-05-21T03:48:47.706Z,99.99
2023-05-21T03:49:47.698Z,99.99
2023-05-21T03:50:47.683Z,99.99
2023-05-21T03:51:47.662Z,99.99
2023-05-21T03:52:47.654Z,99.99
2023-05-21T03:53:47.644Z,99.99
2023-05-21T03:54:47.675Z,99.99
2023-05-21T03:55:47.620Z,99.99
2023-05-21T03:56:47.628Z,99.99
2023-05-21T03:57:47.600Z,99.99
2023-05-21T03:58:47.602Z,99.99
2023-05-21T03:59:47.595Z,99.99
2023-05-21T04:00:47.584Z,99.99
2023-05-21T04:01:48.162Z,99.99
2023-05-21T04:02:47.607Z,99.99
2023-05-21T04:03:47.721Z,99.99
2023-05-21T04:04:47.682Z,99.99
2023-05-21T04:05:47.530Z,99.99
2023-05-21T04:06:47.523Z,99.99
2023-05-21T04:07:47.511Z,99.99
2023-05-21T04:08:47.502Z,99.99
2023-05-21T04:09:47.522Z,99.99
2023-05-21T04:10:47.468Z,99.99
2023-05-21T04:11:47.459Z,99.72
2023-05-21T04:12:47.457Z,98.80
2023-05-21T04:13:47.435Z,98.80
2023-05-21T04:14:47.462Z,98.50
2023-05-21T04:15:47.444Z,98.60
2023-05-21T04:16:47.414Z,98.80
2023-05-21T04:17:47.429Z,99.01
2023-05-21T04:18:47.497Z,99.11
2023-05-21T04:19:47.399Z,98.91
2023-05-21T04:20:47.376Z,97.78
2023-05-21T04:21:47.373Z,97.99
2023-05-21T04:22:47.354Z,97.99
2023-05-21T04:23:47.333Z,97.99
2023-05-21T04:24:47.366Z,98.09
2023-05-21T04:25:47.325Z,97.84
2023-05-21T04:26:47.373Z,98.05
2023-05-21T04:27:47.301Z,97.64
2023-05-21T04:28:47.295Z,97.74
2023-05-21T04:29:48.465Z,97.84
2023-05-21T04:30:47.265Z,97.74
2023-05-21T04:31:47.299Z,98.20
2023-05-21T04:32:47.316Z,97.89
2023-05-21T04:33:47.232Z,97.39
2023-05-21T04:34:47.235Z,97.29
2023-05-21T04:35:47.408Z,97.29
2023-05-21T04:36:47.231Z,96.94
2023-05-21T04:37:47.192Z,96.83
2023-05-21T04:38:47.198Z,96.69
2023-05-21T04:39:47.169Z,96.99
2023-05-21T04:40:47.169Z,96.54
2023-05-21T04:41:47.181Z,96.03
2023-05-21T04:42:47.156Z,95.48
2023-05-21T04:43:47.125Z,94.87
2023-05-21T04:44:47.142Z,94.42
2023-05-21T04:45:49.732Z,94.02
2023-05-21T04:46:47.172Z,93.46
2023-05-21T04:47:47.138Z,92.86
2023-05-21T04:48:47.096Z,92.55
2023-05-21T04:49:47.096Z,92.00
2023-05-21T04:50:47.078Z,91.60
2023-05-21T04:51:47.077Z,91.60
2023-05-21T04:52:47.058Z,91.19
2023-05-21T04:53:47.044Z,90.75
2023-05-21T04:54:47.050Z,90.75
2023-05-21T04:55:47.030Z,90.54
2023-05-21T04:56:47.011Z,90.24
2023-05-21T04:57:47.011Z,90.09
2023-05-21T04:58:47.025Z,89.59
2023-05-21T04:59:47.017Z,89.39
2023-05-21T05:00:47.374Z,89.28
2023-05-21T05:01:46.968Z,88.74
2023-05-21T05:02:47.040Z,88.64
2023-05-21T05:03:46.955Z,88.23
2023-05-21T05:04:46.925Z,87.99
2023-05-21T05:05:46.911Z,87.68
2023-05-21T05:06:46.901Z,87.28
2023-05-21T05:07:46.908Z,87.24
2023-05-21T05:08:46.886Z,86.83
2023-05-21T05:09:46.862Z,86.53
2023-05-21T05:10:46.869Z,86.39
2023-05-21T05:11:46.847Z,86.19
2023-05-21T05:12:46.858Z,85.58
2023-05-21T05:13:48.454Z,85.58
2023-05-21T05:14:48.469Z,85.34
2023-05-21T05:15:49.344Z,85.03
2023-05-21T05:16:47.283Z,84.43
2023-05-21T05:17:47.440Z,84.53
2023-05-21T05:18:48.577Z,84.09
2023-05-21T05:19:46.781Z,84.19
2023-05-21T05:20:46.763Z,83.44
2023-05-21T05:21:46.771Z,83.54
2023-05-21T05:22:46.733Z,83.24
2023-05-21T05:23:46.718Z,82.93
2023-05-21T05:24:46.717Z,82.84
2023-05-21T05:25:46.715Z,82.33
2023-05-21T05:26:46.716Z,82.39
2023-05-21T05:27:46.687Z,81.99
2023-05-21T05:28:46.682Z,82.50
2023-05-21T05:29:46.685Z,81.85
2023-05-21T05:30:46.676Z,81.65
2023-05-21T05:31:46.632Z,81.55
2023-05-21T05:32:46.668Z,81.75
2023-05-21T05:33:46.623Z,80.84
2023-05-21T05:34:46.645Z,81.01
2023-05-21T05:35:46.601Z,80.30
2023-05-21T05:36:46.594Z,79.76
2023-05-21T05:37:46.580Z,79.66
2023-05-21T05:38:46.629Z,79.05
2023-05-21T05:39:46.542Z,78.45
2023-05-21T05:40:46.592Z,78.35
2023-05-21T05:41:46.535Z,78.21
2023-05-21T05:42:46.548Z,78.01
2023-05-21T05:43:46.525Z,77.37
2023-05-21T05:44:46.516Z,77.47
2023-05-21T05:45:48.397Z,76.63
2023-05-21T05:46:46.607Z,76.43
2023-05-21T05:47:46.530Z,76.19
2023-05-21T05:48:46.468Z,75.82
2023-05-21T05:49:46.450Z,76.26
2023-05-21T05:50:46.476Z,75.56
2023-05-21T05:51:46.426Z,75.76
2023-05-21T05:52:46.454Z,75.76
2023-05-21T05:53:46.399Z,75.22
2023-05-21T05:54:46.405Z,74.82
2023-05-21T05:55:46.405Z,74.48
2023-05-21T05:56:46.404Z,73.91
2023-05-21T05:57:46.370Z,74.11
2023-05-21T05:58:46.363Z,74.52
2023-05-21T05:59:46.352Z,74.62
2023-05-21T06:00:46.337Z,74.72
2023-05-21T06:01:46.346Z,74.52
2023-05-21T06:02:46.361Z,74.32
2023-05-21T06:03:46.411Z,73.78
2023-05-21T06:04:46.306Z,73.88
2023-05-21T06:05:46.372Z,73.58
2023-05-21T06:06:46.270Z,73.18
2023-05-21T06:07:46.303Z,73.27
2023-05-21T06:08:46.286Z,73.27
2023-05-21T06:09:46.254Z,73.07
2023-05-21T06:10:46.255Z,72.97
2023-05-21T06:11:46.230Z,73.04
2023-05-21T06:12:46.226Z,72.64
2023-05-21T06:13:46.205Z,72.87
2023-05-21T06:14:46.225Z,73.07
2023-05-21T06:15:46.275Z,72.33
2023-05-21T06:16:46.223Z,72.44
2023-05-21T06:17:47.656Z,72.53
2023-05-21T06:18:46.204Z,72.67
2023-05-21T06:19:46.137Z,72.97
2023-05-21T06:20:46.115Z,72.47
2023-05-21T06:21:46.147Z,72.27
2023-05-21T06:22:46.135Z,72.17
2023-05-21T06:23:46.100Z,72.03
2023-05-21T06:24:46.073Z,72.37
2023-05-21T06:25:46.076Z,72.07
2023-05-21T06:26:46.063Z,72.17
2023-05-21T06:27:46.058Z,72.17
2023-05-21T06:28:46.072Z,71.97
2023-05-21T06:29:46.043Z,71.83
2023-05-21T06:30:46.021Z,71.43
2023-05-21T06:31:46.026Z,71.13
2023-05-21T06:32:46.025Z,71.26
2023-05-21T06:33:46.221Z,71.33
2023-05-21T06:34:45.985Z,70.93
2023-05-21T06:35:46.015Z,70.50
2023-05-21T06:36:45.952Z,70.09
2023-05-21T06:37:45.958Z,69.96
2023-05-21T06:38:45.951Z,69.56
2023-05-21T06:39:45.935Z,69.35
2023-05-21T06:40:47.253Z,69.42
2023-05-21T06:41:45.923Z,68.69
2023-05-21T06:42:45.895Z,68.19
2023-05-21T06:43:45.913Z,68.19
2023-05-21T06:44:45.867Z,67.58
2023-05-21T06:45:49.286Z,67.99
2023-05-21T06:46:47.379Z,67.99
2023-05-21T06:47:46.030Z,67.29
2023-05-21T06:48:47.030Z,67.92
2023-05-21T06:49:45.826Z,68.62
2023-05-21T06:50:45.824Z,69.06
2023-05-21T06:51:45.818Z,69.02
2023-05-21T06:52:45.790Z,68.82
2023-05-21T06:53:48.775Z,69.46
2023-05-21T06:54:45.764Z,69.06
2023-05-21T06:55:45.768Z,69.46
2023-05-21T06:56:45.746Z,69.26
2023-05-21T06:57:45.748Z,69.02
2023-05-21T06:58:45.761Z,68.92
2023-05-21T06:59:45.745Z,67.79
2023-05-21T07:00:46.460Z,68.02
2023-05-21T07:01:46.542Z,68.02
2023-05-21T07:02:45.736Z,67.79
2023-05-21T07:03:45.790Z,67.49
2023-05-21T07:04:47.033Z,66.95
2023-05-21T07:05:45.652Z,66.65
2023-05-21T07:06:45.656Z,66.45
2023-05-21T07:07:45.656Z,66.12
2023-05-21T07:08:45.622Z,65.28
2023-05-21T07:09:45.615Z,64.36
2023-05-21T07:10:46.201Z,63.19
2023-05-21T07:11:45.617Z,60.91
2023-05-21T07:12:45.600Z,58.23
2023-05-21T07:13:45.572Z,57.50
2023-05-21T07:14:45.570Z,56.57
2023-05-21T07:15:45.567Z,55.43
2023-05-21T07:16:45.565Z,55.35
2023-05-21T07:17:45.590Z,54.93
2023-05-21T07:18:45.537Z,54.83
2023-05-21T07:19:45.526Z,54.33
2023-05-21T07:20:45.519Z,54.93
2023-05-21T07:21:45.506Z,53.88
2023-05-21T07:22:45.495Z,52.94
2023-05-21T07:23:45.469Z,51.07
2023-05-21T07:24:45.447Z,50.58
2023-05-21T07:25:45.469Z,49.99
2023-05-21T07:26:46.891Z,49.24
2023-05-21T07:27:45.448Z,48.35
2023-05-21T07:28:45.405Z,49.69
2023-05-21T07:29:45.403Z,50.51
2023-05-21T07:30:47.037Z,49.96
2023-05-21T07:31:45.385Z,48.43
2023-05-21T07:32:45.412Z,47.91
2023-05-21T07:33:45.374Z,47.25
2023-05-21T07:34:45.940Z,45.13
2023-05-21T07:35:45.367Z,47.12
2023-05-21T07:36:45.334Z,48.77
2023-05-21T07:37:47.001Z,48.03
2023-05-21T07:38:45.535Z,47.83
2023-05-21T07:39:45.305Z,47.52
2023-05-21T07:40:45.303Z,46.58
2023-05-21T07:41:45.284Z,47.09
2023-05-21T07:42:45.264Z,47.22
2023-05-21T07:43:46.887Z,46.16
2023-05-21T07:44:45.330Z,45.57
2023-05-21T07:45:45.248Z,46.74
2023-05-21T07:46:45.255Z,47.53
2023-05-21T07:47:45.294Z,47.53
2023-05-21T07:48:45.204Z,47.04
2023-05-21T07:49:45.849Z,47.02
2023-05-21T07:50:45.449Z,47.22
2023-05-21T07:51:45.188Z,47.34
2023-05-21T07:52:48.681Z,46.70
2023-05-21T07:53:45.165Z,45.86
2023-05-21T07:54:45.777Z,44.95
2023-05-21T07:55:45.138Z,44.68
2023-05-21T07:56:45.754Z,45.05
2023-05-21T07:57:45.119Z,44.56
2023-05-21T07:58:45.105Z,44.75
2023-05-21T07:59:45.107Z,45.90
2023-05-21T08:00:45.092Z,46.11
2023-05-21T08:01:45.110Z,46.20
2023-05-21T08:02:45.160Z,45.67
2023-05-21T08:03:45.238Z,45.07
2023-05-21T08:04:45.071Z,44.97
2023-05-21T08:05:46.604Z,44.56
2023-05-21T08:06:45.061Z,44.36
2023-05-21T08:07:45.026Z,44.26
2023-05-21T08:08:45.005Z,43.65
2023-05-21T08:09:46.628Z,44.24
2023-05-21T08:10:48.041Z,44.68
2023-05-21T08:11:45.610Z,44.68
2023-05-21T08:12:44.963Z,45.07
2023-05-21T08:13:44.964Z,44.85
2023-05-21T08:14:44.983Z,44.78
2023-05-21T08:15:44.959Z,44.90
2023-05-21T08:16:46.625Z,46.11
2023-05-21T08:17:44.968Z,45.59
2023-05-21T08:18:44.969Z,44.65
2023-05-21T08:19:44.942Z,44.26
2023-05-21T08:20:44.883Z,43.82
2023-05-21T08:21:44.902Z,44.36
2023-05-21T08:22:44.876Z,44.78
2023-05-21T08:23:45.570Z,44.95
2023-05-21T08:24:45.570Z,44.56
2023-05-21T08:25:44.839Z,43.73
2023-05-21T08:26:44.828Z,43.01
2023-05-21T08:27:45.436Z,41.99
2023-05-21T08:28:44.805Z,42.16
2023-05-21T08:29:44.828Z,41.45
2023-05-21T08:30:44.796Z,40.88
2023-05-21T08:31:46.334Z,40.56
2023-05-21T08:32:44.787Z,40.55
2023-05-21T08:33:44.772Z,39.64
2023-05-21T09:08:17.747Z,43.27
2023-05-21T09:09:18.730Z,43.37
2023-05-21T09:10:18.700Z,43.96
2023-05-21T09:11:18.721Z,44.31
2023-05-21T09:12:18.697Z,44.80
2023-05-21T09:13:18.692Z,44.92
2023-05-21T09:14:18.663Z,45.31
2023-05-21T09:15:18.675Z,45.81
2023-05-21T09:16:18.690Z,45.71
2023-05-21T09:17:18.634Z,45.51
2023-05-21T09:18:18.644Z,45.49
2023-05-21T09:19:18.736Z,45.29
2023-05-21T09:20:18.647Z,44.75
2023-05-21T09:21:18.607Z,44.64
2023-05-21T09:22:18.577Z,43.33
2023-05-21T09:23:18.580Z,44.36
2023-05-21T09:24:18.575Z,44.14
2023-05-21T09:25:18.584Z,43.84
2023-05-21T09:26:18.537Z,43.82
2023-05-21T09:27:18.542Z,43.52
2023-05-21T09:28:18.537Z,43.23
2023-05-21T09:29:18.517Z,43.01
2023-05-21T09:30:18.582Z,42.28
2023-05-21T09:31:18.546Z,40.98
2023-05-21T09:32:18.484Z,41.20
2023-05-21T09:33:18.487Z,39.76
2023-05-21T09:34:18.465Z,39.25
2023-05-21T09:35:18.448Z,39.17
2023-05-21T09:36:18.465Z,39.40
2023-05-21T09:37:27.157Z,41.43
2023-05-21T09:38:18.421Z,41.36
2023-05-21T09:39:18.782Z,41.65
2023-05-21T09:40:18.410Z,41.85
2023-05-21T09:41:21.594Z,40.94
2023-05-21T09:42:18.380Z,40.41
2023-05-21T09:43:18.405Z,39.79
2023-05-21T09:44:18.381Z,39.70
2023-05-21T09:45:18.382Z,38.99
2023-05-21T09:46:18.375Z,39.18
2023-05-21T09:47:18.338Z,39.48
2023-05-21T09:48:18.324Z,39.97
2023-05-21T09:49:18.333Z,38.76
2023-05-21T09:50:18.351Z,38.03
2023-05-21T09:51:18.360Z,37.74
2023-05-21T09:52:18.295Z,38.23
2023-05-21T09:53:18.264Z,37.11
2023-05-21T09:54:18.278Z,36.91
2023-05-21T09:55:19.379Z,36.60
2023-05-21T09:56:18.254Z,36.22
2023-05-21T09:57:18.235Z,36.83
2023-05-21T09:58:18.214Z,36.93
2023-05-21T09:59:19.895Z,37.46
2023-05-21T10:00:19.405Z,37.44
2023-05-21T10:01:18.220Z,37.23
2023-05-21T10:02:18.319Z,36.70
2023-05-21T10:03:20.965Z,35.66
2023-05-21T10:04:18.168Z,34.86
2023-05-21T10:05:18.160Z,34.84
2023-05-21T10:06:18.159Z,34.78
2023-05-21T10:07:18.129Z,34.69
2023-05-21T10:08:18.715Z,35.72
2023-05-21T10:09:18.114Z,36.85
2023-05-21T10:10:18.708Z,37.03
2023-05-21T10:11:21.842Z,36.51
2023-05-21T10:12:18.073Z,35.08
2023-05-21T10:13:18.083Z,35.10
2023-05-21T10:14:19.673Z,35.17
2023-05-21T10:15:18.055Z,35.19
2023-05-21T10:16:18.672Z,34.90
2023-05-21T10:17:18.036Z,34.78
2023-05-21T10:18:18.052Z,34.08
2023-05-21T10:19:18.102Z,33.46
2023-05-21T10:20:19.612Z,33.98
2023-05-21T10:21:17.999Z,33.98
2023-05-21T10:22:18.018Z,33.98
2023-05-21T10:23:17.977Z,34.06
2023-05-21T10:24:17.956Z,34.18
2023-05-21T10:25:17.954Z,34.28
2023-05-21T10:26:17.940Z,33.54
2023-05-21T10:27:17.963Z,32.94
2023-05-21T10:28:17.927Z,32.84
2023-05-21T10:29:19.612Z,33.25
2023-05-21T10:30:17.899Z,33.56
2023-05-21T10:31:17.899Z,33.97
2023-05-21T10:32:19.693Z,33.75
2023-05-21T10:33:18.515Z,33.65
2023-05-21T10:34:17.868Z,33.34
2023-05-21T10:35:19.448Z,32.52
2023-05-21T10:36:17.851Z,32.21
2023-05-21T10:37:17.883Z,32.63
2023-05-21T10:38:17.813Z,33.25
2023-05-21T10:39:18.535Z,34.28
2023-05-21T10:40:21.245Z,34.08
2023-05-21T10:41:18.508Z,34.00
2023-05-21T10:42:19.390Z,35.72
2023-05-21T10:43:17.788Z,36.44
2023-05-21T10:44:18.130Z,37.03
2023-05-21T10:45:17.770Z,36.63
2023-05-21T10:46:18.494Z,36.74
2023-05-21T10:47:18.400Z,37.16
2023-05-21T10:48:17.782Z,37.34
2023-05-21T10:49:18.410Z,37.34
2023-05-21T10:50:17.715Z,37.13
2023-05-21T10:51:18.337Z,36.32
2023-05-21T10:52:18.344Z,36.01
2023-05-21T10:53:17.690Z,35.80
2023-05-21T10:54:17.721Z,35.91
2023-05-21T10:55:17.681Z,36.44
2023-05-21T10:56:17.638Z,37.15
2023-05-21T10:57:17.668Z,37.95
2023-05-21T10:58:17.616Z,38.66
2023-05-21T10:59:17.910Z,38.66
2023-05-21T11:00:19.124Z,38.68
2023-05-21T11:01:17.636Z,39.20
2023-05-21T11:02:17.653Z,39.40
2023-05-21T11:03:17.706Z,38.99
2023-05-21T11:04:17.592Z,39.18
2023-05-21T11:05:18.540Z,38.89
2023-05-21T11:06:17.553Z,38.36
2023-05-21T11:07:18.106Z,37.03
2023-05-21T11:08:19.654Z,36.09
2023-05-21T11:09:18.169Z,36.39
2023-05-21T11:10:18.207Z,35.68
2023-05-21T11:11:17.528Z,34.70
2023-05-21T11:12:18.756Z,35.50
2023-05-21T11:13:18.145Z,34.92
2023-05-21T11:14:18.750Z,35.41
2023-05-21T11:15:17.706Z,35.54
2023-05-21T11:16:18.069Z,35.11
2023-05-21T11:17:18.224Z,35.21
2023-05-21T11:18:17.443Z,35.23
2023-05-21T11:19:17.469Z,35.52
2023-05-21T11:20:17.400Z,35.33
2023-05-21T11:21:17.428Z,35.54
2023-05-21T11:22:17.376Z,35.93
2023-05-21T11:23:17.387Z,35.64
2023-05-21T11:24:17.361Z,36.05
2023-05-21T11:25:17.363Z,35.23
2023-05-21T11:26:17.365Z,34.52
2023-05-21T11:27:18.457Z,34.11
2023-05-21T11:28:17.912Z,34.13
2023-05-21T11:29:18.876Z,33.84
2023-05-21T11:30:17.337Z,33.53
2023-05-21T11:31:17.341Z,34.33
2023-05-21T11:32:17.553Z,34.25
2023-05-21T11:33:17.589Z,34.23
2023-05-21T11:34:17.306Z,33.70
2023-05-21T11:35:17.913Z,33.50
2023-05-21T11:36:17.848Z,33.61
2023-05-21T11:37:17.249Z,33.50
2023-05-21T11:38:17.237Z,33.02
2023-05-21T11:39:18.948Z,32.79
2023-05-21T11:40:17.520Z,32.19
2023-05-21T11:41:17.828Z,31.70
2023-05-21T11:42:17.189Z,32.30
2023-05-21T11:43:17.196Z,32.71
2023-05-21T11:44:17.199Z,32.70
2023-05-21T11:45:17.189Z,32.09
2023-05-21T11:46:17.217Z,32.19
2023-05-21T11:47:17.174Z,32.90
2023-05-21T11:48:17.138Z,31.90
2023-05-21T11:49:17.132Z,32.19
2023-05-21T11:50:17.127Z,31.10
2023-05-21T11:51:17.109Z,31.29
2023-05-21T11:52:17.100Z,30.87
2023-05-21T11:53:17.104Z,30.97
2023-05-21T11:54:18.717Z,30.77
2023-05-21T11:55:17.536Z,30.69
2023-05-21T11:56:17.049Z,31.29
2023-05-21T11:57:17.064Z,31.10
2023-05-21T11:58:17.026Z,30.59
2023-05-21T11:59:18.839Z,30.90
2023-05-21T12:00:17.033Z,30.88
2023-05-21T12:01:18.627Z,30.06
2023-05-21T12:02:16.989Z,29.88
2023-05-21T12:03:17.079Z,30.30
2023-05-21T12:04:18.606Z,31.52
2023-05-21T12:05:17.028Z,32.01
2023-05-21T12:06:17.030Z,31.51
2023-05-21T12:07:16.962Z,31.21
2023-05-21T12:08:16.920Z,31.62
2023-05-21T12:09:18.566Z,31.62
2023-05-21T12:10:16.913Z,30.98
2023-05-21T12:11:16.933Z,30.08
2023-05-21T12:12:16.895Z,30.32
2023-05-21T12:13:16.884Z,31.73
2023-05-21T12:14:17.506Z,31.52
2023-05-21T12:15:16.892Z,30.82
2023-05-21T12:16:16.891Z,31.13
2023-05-21T12:17:16.860Z,31.84
2023-05-21T12:18:16.848Z,31.54
2023-05-21T12:19:16.833Z,31.93
2023-05-21T12:20:16.843Z,32.23
2023-05-21T12:21:16.843Z,32.37
2023-05-21T12:22:16.824Z,32.45
2023-05-21T12:23:16.780Z,31.93
2023-05-21T12:24:16.813Z,31.13
2023-05-21T12:25:17.712Z,30.71
2023-05-21T12:26:16.791Z,30.40
2023-05-21T12:27:16.809Z,30.20
2023-05-21T12:28:16.764Z,30.40
2023-05-21T12:29:17.980Z,29.38
2023-05-21T12:30:16.736Z,28.88
2023-05-21T12:31:16.748Z,28.36
2023-05-21T12:32:16.703Z,27.95
2023-05-21T12:33:16.706Z,27.95
2023-05-21T12:34:16.711Z,28.09
2023-05-21T12:35:16.704Z,28.09
2023-05-21T12:36:16.658Z,28.81
2023-05-21T12:37:16.657Z,29.20
2023-05-21T12:38:16.678Z,28.28
2023-05-21T12:39:16.632Z,27.48
2023-05-21T12:40:16.631Z,26.87
2023-05-21T12:41:16.606Z,26.78
2023-05-21T12:42:16.602Z,26.86
2023-05-21T12:43:16.612Z,26.44
2023-05-21T12:44:16.591Z,26.65
2023-05-21T12:45:16.556Z,27.89
2023-05-21T12:46:16.635Z,27.16
2023-05-21T12:47:16.542Z,26.94
2023-05-21T12:48:16.540Z,26.95
2023-05-21T12:49:16.527Z,28.08
2023-05-21T12:50:16.566Z,28.58
2023-05-21T12:51:16.506Z,28.71
2023-05-21T12:52:16.514Z,29.42
2023-05-21T12:53:16.498Z,29.50
2023-05-21T12:54:16.513Z,28.50
2023-05-21T12:55:16.602Z,28.59
2023-05-21T12:56:16.497Z,28.29
2023-05-21T12:57:16.450Z,27.56
2023-05-21T12:58:16.469Z,27.58
2023-05-21T12:59:16.429Z,28.50
2023-05-21T13:00:16.434Z,29.20
2023-05-21T13:01:16.473Z,29.71
2023-05-21T13:02:16.410Z,30.02
2023-05-21T13:03:16.491Z,30.02
2023-05-21T13:04:16.418Z,31.44
2023-05-21T13:05:16.369Z,31.23
2023-05-21T13:06:16.389Z,30.82
2023-05-21T13:07:16.350Z,30.62
2023-05-21T13:08:16.360Z,30.91
2023-05-21T13:09:16.333Z,29.74
2023-05-21T13:10:16.709Z,30.64
2023-05-21T13:11:16.312Z,30.02
2023-05-21T13:12:16.342Z,29.44
2023-05-21T13:13:16.294Z,30.67
2023-05-21T13:14:16.291Z,32.28
2023-05-21T13:15:16.277Z,32.79
2023-05-21T13:16:16.319Z,33.20
2023-05-21T13:17:16.280Z,33.02
2023-05-21T13:18:17.576Z,32.28
2023-05-21T13:19:16.263Z,31.16
2023-05-21T13:20:16.227Z,30.23
2023-05-21T13:21:16.215Z,31.16
2023-05-21T13:22:16.237Z,32.27
2023-05-21T13:23:16.202Z,32.38
2023-05-21T13:24:16.200Z,32.48
2023-05-21T13:25:16.183Z,32.87
2023-05-21T13:26:16.176Z,33.46